createdAt,value
2022-08-21T00:01:58.430Z,77.30
2022-08-21T00:07:08.043Z,79.40
2022-08-21T00:09:35.751Z,77.55
2022-08-21T00:12:09.043Z,77.20
2022-08-21T00:14:41.669Z,75.20
2022-08-21T00:17:09.069Z,73.50
2022-08-21T00:19:39.008Z,76.15
2022-08-21T00:22:07.148Z,73.88
2022-08-21T00:27:16.747Z,77.82
2022-08-21T00:29:44.991Z,76.22
2022-08-21T00:32:31.625Z,77.68
2022-08-21T00:35:00.298Z,73.22
2022-08-21T00:38:59.178Z,80.95
2022-08-21T00:41:38.948Z,81.38
2022-08-21T00:46:52.023Z,74.63
2022-08-21T00:52:03.247Z,73.05
2022-08-21T01:08:56.536Z,78.75
2022-08-21T01:11:28.032Z,74.85
2022-08-21T01:13:55.920Z,73.13
2022-08-21T01:16:24.177Z,74.38
2022-08-21T01:18:53.162Z,74.35
2022-08-21T01:21:27.863Z,71.22
2022-08-21T01:24:02.602Z,80.72
2022-08-21T01:26:34.631Z,73.47
2022-08-21T01:29:19.101Z,70.13
2022-08-21T01:36:18.701Z,66.15
2022-08-21T01:38:48.182Z,64.50
2022-08-21T01:41:18.555Z,71.45
2022-08-21T01:43:50.635Z,67.43
2022-08-21T01:46:27.444Z,67.95
2022-08-21T01:48:59.048Z,62.13
2022-08-21T01:54:08.390Z,68.35
2022-08-21T01:59:25.416Z,68.78
2022-08-21T02:01:57.159Z,58.88
2022-08-21T02:04:38.119Z,67.93
2022-08-21T02:07:08.437Z,69.15
2022-08-21T02:09:43.354Z,68.05
2022-08-21T02:12:12.251Z,69.38
2022-08-21T02:18:08.139Z,67.93
2022-08-21T02:20:42.800Z,60.15
2022-08-21T02:23:14.124Z,62.17
2022-08-21T02:25:51.796Z,62.70
2022-08-21T02:28:19.807Z,61.55
2022-08-21T02:30:48.933Z,59.83
2022-08-21T02:33:17.204Z,64.15
2022-08-21T02:38:34.761Z,60.58
2022-08-21T02:41:06.626Z,65.65
2022-08-21T02:44:39.074Z,59.75
2022-08-21T02:47:08.243Z,65.05
2022-08-21T02:49:38.028Z,70.53
2022-08-21T02:52:07.367Z,53.83
2022-08-21T02:54:37.977Z,65.03
2022-08-21T02:57:05.263Z,55.55
2022-08-21T02:59:33.389Z,55.95
2022-08-21T03:02:02.425Z,55.63
2022-08-21T03:04:41.372Z,58.70
2022-08-21T03:14:56.077Z,59.30
2022-08-21T03:23:38.765Z,62.00
2022-08-21T03:26:06.463Z,61.65
2022-08-21T03:28:37.924Z,57.80
2022-08-21T03:31:11.069Z,54.50
2022-08-21T03:33:38.959Z,59.08
2022-08-21T03:36:13.420Z,62.85
2022-08-21T03:38:43.471Z,62.42
2022-08-21T03:56:57.943Z,71.03
2022-08-21T03:59:34.846Z,72.13
2022-08-21T04:02:08.919Z,68.03
2022-08-21T04:07:22.462Z,70.07
2022-08-21T04:09:50.589Z,73.47
2022-08-21T04:12:20.663Z,70.63
2022-08-21T04:17:33.047Z,79.25
2022-08-21T04:20:04.910Z,68.20
2022-08-21T04:22:32.643Z,75.30
2022-08-21T04:25:00.452Z,70.80
2022-08-21T04:27:32.025Z,77.28
2022-08-21T04:35:38.804Z,72.10
2022-08-21T04:40:50.595Z,80.88
2022-08-21T04:43:19.609Z,78.82
2022-08-21T04:45:52.203Z,77.57
2022-08-21T04:48:22.251Z,82.55
2022-08-21T04:51:08.502Z,87.35
2022-08-21T04:54:06.874Z,76.68
2022-08-21T04:56:47.710Z,77.93
2022-08-21T05:02:16.867Z,84.60
2022-08-21T05:04:53.525Z,84.18
2022-08-21T05:21:23.194Z,83.82
2022-08-21T05:23:51.931Z,80.77
2022-08-21T05:26:19.859Z,82.97
2022-08-21T05:28:48.686Z,84.60
2022-08-21T05:31:16.925Z,85.93
2022-08-21T05:33:44.131Z,81.65
2022-08-21T05:41:39.356Z,83.93
2022-08-21T05:44:12.268Z,75.78
2022-08-21T05:46:40.119Z,78.32
2022-08-21T05:49:07.629Z,76.53
2022-08-21T05:51:35.246Z,79.88
2022-08-21T05:54:06.370Z,81.60
2022-08-21T05:56:37.802Z,72.85
2022-08-21T05:59:08.581Z,79.70
2022-08-21T06:01:38.153Z,77.45
2022-08-21T06:04:15.290Z,73.22
2022-08-21T06:11:52.622Z,67.65
2022-08-21T06:14:26.303Z,76.00
2022-08-21T06:16:55.767Z,70.68
2022-08-21T06:19:26.824Z,71.88
2022-08-21T06:21:58.245Z,72.13
2022-08-21T06:27:10.987Z,69.10
2022-08-21T06:29:44.226Z,76.40
2022-08-21T06:35:02.964Z,62.78
2022-08-21T06:37:32.436Z,67.43
2022-08-21T06:40:00.780Z,66.75
2022-08-21T06:42:31.500Z,61.92
2022-08-21T06:47:41.590Z,58.78
2022-08-21T06:50:15.996Z,57.33
2022-08-21T06:52:45.597Z,63.25
2022-08-21T06:55:22.303Z,65.25
2022-08-21T06:57:54.614Z,68.25
2022-08-21T07:03:05.632Z,59.97
2022-08-21T07:05:36.441Z,58.38
2022-08-21T07:08:05.252Z,59.47
2022-08-21T07:13:16.309Z,60.72
2022-08-21T07:16:00.281Z,58.40
2022-08-21T07:18:33.134Z,58.88
2022-08-21T07:23:53.794Z,59.60
2022-08-21T08:24:18.839Z,48.58
2022-08-21T14:49:08.852Z,9.93
2022-08-21T20:19:36.888Z,12.48
2022-08-21T20:24:53.575Z,13.23
2022-08-21T20:27:27.483Z,12.90
2022-08-21T20:29:57.224Z,15.30
2022-08-21T20:32:27.666Z,11.38
2022-08-21T20:34:55.775Z,15.25
2022-08-21T20:51:45.406Z,18.08
2022-08-21T20:54:41.756Z,14.27
2022-08-21T20:57:20.751Z,10.98
2022-08-21T21:00:02.149Z,11.73
2022-08-21T21:03:06.713Z,19.02
2022-08-21T21:06:03.255Z,15.05
2022-08-21T21:08:55.196Z,15.68
2022-08-21T21:11:40.584Z,12.75
2022-08-21T21:14:28.114Z,9.38
2022-08-21T21:19:54.134Z,18.42
2022-08-21T21:22:29.781Z,17.15
2022-08-21T21:48:26.950Z,18.45
2022-08-21T21:51:27.248Z,13.00
2022-08-21T21:54:20.905Z,15.75
2022-08-21T21:57:34.615Z,19.25
2022-08-21T22:03:22.478Z,18.77
2022-08-21T22:06:10.229Z,14.43
2022-08-21T22:09:10.364Z,17.38
2022-08-21T22:12:24.507Z,15.18
2022-08-21T22:14:54.572Z,13.38
2022-08-21T22:17:51.341Z,17.13
2022-08-21T22:23:22.471Z,15.60
2022-08-21T22:28:42.319Z,15.23
2022-08-21T22:34:21.670Z,17.55
2022-08-21T22:37:03.154Z,18.25
2022-08-21T22:39:38.751Z,23.23
2022-08-21T22:45:15.838Z,18.33
2022-08-21T22:47:50.623Z,19.23
2022-08-21T22:53:10.695Z,18.98
2022-08-21T22:55:50.319Z,17.77
2022-08-21T22:58:19.281Z,16.77
2022-08-21T23:00:55.896Z,18.65
2022-08-21T23:03:43.343Z,18.75
2022-08-21T23:06:33.155Z,16.70
2022-08-21T23:09:04.352Z,18.98
2022-08-21T23:14:25.467Z,19.52
2022-08-21T23:17:12.456Z,19.88
2022-08-21T23:20:05.057Z,17.50
2022-08-21T23:25:51.581Z,19.80
2022-08-21T23:32:22.949Z,21.83
2022-08-21T23:35:21.765Z,18.45
2022-08-21T23:38:09.373Z,17.95
2022-08-21T23:40:53.453Z,21.20
2022-08-21T23:43:38.053Z,24.05
2022-08-21T23:46:34.040Z,23.00
2022-08-21T23:49:22.071Z,22.63
2022-08-21T23:52:20.919Z,24.02
2022-08-21T23:55:20.589Z,25.23
2022-08-21T23:58:00.630Z,30.60
